createdAt,value
2022-08-22T00:01:23.881Z,24.80
2022-08-22T00:04:17.393Z,24.77
2022-08-22T00:07:08.665Z,24.77
2022-08-22T00:10:05.503Z,24.74
2022-08-22T00:12:54.873Z,24.80
2022-08-22T00:15:47.313Z,24.79
2022-08-22T00:18:45.066Z,24.79
2022-08-22T00:21:22.300Z,24.67
2022-08-22T00:24:28.146Z,24.72
2022-08-22T00:27:02.258Z,24.67
2022-08-22T00:29:51.397Z,24.65
2022-08-22T00:32:42.867Z,24.69
2022-08-22T00:35:34.172Z,24.62
2022-08-22T00:38:15.812Z,24.58
2022-08-22T00:41:10.317Z,24.68
2022-08-22T00:43:56.811Z,24.71
2022-08-22T00:46:36.370Z,24.66
2022-08-22T00:49:14.232Z,24.60
2022-08-22T00:52:08.038Z,24.68
2022-08-22T00:55:17.953Z,24.62
2022-08-22T00:58:16.645Z,24.62
2022-08-22T01:00:53.760Z,24.63
2022-08-22T01:03:49.208Z,24.65
2022-08-22T01:06:41.153Z,24.61
2022-08-22T01:09:47.066Z,24.53
2022-08-22T01:12:52.346Z,24.68
2022-08-22T01:15:27.164Z,24.56
2022-08-22T01:18:35.413Z,24.62
2022-08-22T01:21:47.881Z,24.57
2022-08-22T01:24:34.210Z,24.57
2022-08-22T01:27:08.019Z,24.52
2022-08-22T01:30:18.403Z,24.43
2022-08-22T01:33:08.922Z,24.41
2022-08-22T01:35:59.959Z,24.45
2022-08-22T01:38:36.811Z,24.43
2022-08-22T01:41:49.913Z,24.47
2022-08-22T01:44:32.458Z,24.45
2022-08-22T01:47:13.398Z,24.45
2022-08-22T01:49:53.359Z,24.29
2022-08-22T01:52:36.099Z,24.44
2022-08-22T01:55:38.970Z,24.42
2022-08-22T01:58:30.355Z,24.45
2022-08-22T02:01:11.045Z,24.41
2022-08-22T02:04:34.031Z,24.36
2022-08-22T02:07:17.864Z,24.36
2022-08-22T02:10:19.466Z,24.40
2022-08-22T02:13:25.469Z,24.38
2022-08-22T02:16:09.733Z,24.40
2022-08-22T02:19:15.700Z,24.37
2022-08-22T02:22:05.083Z,24.32
2022-08-22T02:24:33.705Z,24.28
2022-08-22T02:27:33.650Z,24.31
2022-08-22T02:30:22.208Z,24.35
2022-08-22T02:33:21.665Z,24.25
2022-08-22T02:35:56.805Z,24.27
2022-08-22T02:38:56.194Z,24.20
2022-08-22T02:41:31.033Z,24.19
2022-08-22T02:44:36.575Z,24.20
2022-08-22T02:47:23.263Z,24.15
2022-08-22T02:50:19.762Z,24.10
2022-08-22T02:53:03.934Z,24.08
2022-08-22T02:56:09.494Z,24.03
2022-08-22T02:58:52.114Z,24.09
2022-08-22T03:01:38.319Z,24.10
2022-08-22T03:04:46.925Z,24.10
2022-08-22T03:07:34.646Z,24.17
2022-08-22T03:10:32.426Z,24.01
2022-08-22T03:13:08.304Z,24.10
2022-08-22T03:15:50.078Z,24.13
2022-08-22T03:18:54.023Z,24.09
2022-08-22T03:21:30.542Z,23.98
2022-08-22T03:24:13.147Z,23.99
2022-08-22T03:26:40.697Z,23.92
2022-08-22T03:29:17.578Z,24.00
2022-08-22T03:32:07.546Z,24.06
2022-08-22T03:34:36.489Z,23.98
2022-08-22T03:37:30.966Z,23.97
2022-08-22T03:40:23.435Z,24.00
2022-08-22T03:43:18.337Z,23.98
2022-08-22T03:46:17.478Z,23.97
2022-08-22T03:48:52.926Z,23.79
2022-08-22T03:51:38.758Z,23.94
2022-08-22T03:54:22.173Z,23.81
2022-08-22T03:57:24.009Z,23.75
2022-08-22T04:00:28.233Z,23.77
2022-08-22T04:03:33.805Z,23.80
2022-08-22T04:06:18.139Z,23.72
2022-08-22T04:09:14.532Z,23.80
2022-08-22T04:12:10.777Z,23.91
2022-08-22T04:15:17.541Z,23.83
2022-08-22T04:18:09.097Z,23.77
2022-08-22T04:21:14.235Z,23.85
2022-08-22T04:24:10.814Z,23.95
2022-08-22T04:26:51.256Z,23.70
2022-08-22T04:29:44.697Z,23.84
2022-08-22T04:32:38.547Z,23.69
2022-08-22T04:35:19.367Z,23.62
2022-08-22T04:37:57.192Z,23.60
2022-08-22T04:41:04.417Z,23.68
2022-08-22T04:43:40.018Z,23.72
2022-08-22T04:46:41.986Z,23.89
2022-08-22T04:49:48.942Z,23.89
2022-08-22T04:52:52.426Z,23.72
2022-08-22T04:55:39.613Z,23.80
2022-08-22T04:58:45.007Z,23.80
2022-08-22T05:01:20.859Z,23.90
2022-08-22T05:03:54.114Z,24.00
2022-08-22T05:06:28.911Z,24.12
2022-08-22T05:09:04.494Z,24.10
2022-08-22T05:11:36.992Z,24.17
2022-08-22T05:14:14.125Z,24.27
2022-08-22T05:16:50.032Z,24.06
2022-08-22T05:19:29.594Z,23.82
2022-08-22T05:22:03.546Z,23.92
2022-08-22T05:24:44.399Z,24.08
2022-08-22T05:27:25.699Z,23.94
2022-08-22T05:30:21.847Z,24.02
2022-08-22T05:33:15.442Z,23.95
2022-08-22T05:35:53.410Z,24.01
2022-08-22T05:38:30.772Z,23.96
2022-08-22T05:41:09.035Z,23.99
2022-08-22T05:43:42.436Z,24.08
2022-08-22T05:46:41.800Z,24.28
2022-08-22T05:49:40.351Z,24.16
2022-08-22T05:52:36.616Z,24.09
2022-08-22T05:55:17.858Z,24.36
2022-08-22T05:57:58.876Z,24.41
2022-08-22T06:00:32.999Z,24.55
2022-08-22T06:03:20.339Z,24.44
2022-08-22T06:05:53.265Z,24.56
2022-08-22T06:08:26.274Z,24.87
2022-08-22T06:11:00.323Z,24.96
2022-08-22T06:13:52.162Z,24.94
2022-08-22T06:16:47.482Z,25.12
2022-08-22T06:19:20.270Z,25.13
2022-08-22T06:21:52.065Z,25.22
2022-08-22T06:24:28.066Z,25.11
2022-08-22T06:27:02.845Z,25.02
2022-08-22T06:29:42.731Z,25.11
2022-08-22T06:32:44.594Z,25.28
2022-08-22T06:35:18.810Z,25.29
2022-08-22T06:37:49.498Z,25.35
2022-08-22T06:40:19.571Z,25.35
2022-08-22T06:42:52.142Z,25.47
2022-08-22T06:45:30.791Z,25.52
2022-08-22T06:48:25.229Z,25.73
2022-08-22T06:50:58.816Z,25.82
2022-08-22T06:53:47.747Z,26.03
2022-08-22T06:56:24.756Z,26.17
2022-08-22T06:58:56.917Z,26.27
2022-08-22T07:01:33.455Z,26.14
2022-08-22T07:04:08.069Z,26.13
2022-08-22T07:06:50.724Z,26.29
2022-08-22T07:09:35.166Z,26.27
2022-08-22T07:12:23.403Z,26.10
2022-08-22T07:14:54.566Z,26.04
2022-08-22T07:17:27.414Z,26.18
2022-08-22T07:20:05.216Z,26.05
2022-08-22T07:22:37.750Z,26.20
2022-08-22T07:25:34.213Z,26.36
2022-08-22T07:28:08.855Z,26.44
2022-08-22T07:31:02.988Z,26.51
2022-08-22T07:33:31.721Z,26.42
2022-08-22T07:36:07.854Z,26.35
2022-08-22T07:38:50.063Z,26.61
2022-08-22T07:41:28.873Z,26.73
2022-08-22T07:44:09.166Z,26.90
2022-08-22T07:46:47.830Z,27.09
2022-08-22T07:49:22.454Z,27.15
2022-08-22T07:52:04.759Z,27.20
2022-08-22T07:54:42.230Z,27.24
2022-08-22T07:57:22.024Z,27.34
2022-08-22T07:59:56.917Z,27.07
2022-08-22T08:02:28.570Z,27.04
2022-08-22T08:05:01.468Z,26.96
2022-08-22T08:07:32.497Z,26.83
2022-08-22T08:10:13.260Z,26.78
2022-08-22T08:13:02.591Z,26.82
2022-08-22T08:15:35.553Z,26.76
2022-08-22T08:18:19.504Z,26.83
2022-08-22T08:20:56.924Z,26.91
2022-08-22T08:23:30.297Z,27.00
2022-08-22T08:26:16.163Z,27.15
2022-08-22T08:28:50.088Z,27.31
2022-08-22T08:31:43.109Z,27.50
2022-08-22T08:34:29.521Z,27.61
2022-08-22T08:37:25.980Z,27.69
2022-08-22T08:39:59.549Z,27.85
2022-08-22T08:43:20.391Z,28.26
2022-08-22T08:46:25.735Z,28.37
2022-08-22T08:49:21.069Z,28.55
2022-08-22T08:52:31.987Z,28.50
2022-08-22T08:55:37.484Z,28.68
2022-08-22T08:58:24.807Z,28.92
2022-08-22T09:01:19.496Z,29.04
2022-08-22T09:04:21.802Z,29.22
2022-08-22T09:07:31.357Z,29.20
2022-08-22T09:10:16.957Z,29.13
2022-08-22T09:13:12.462Z,29.18
2022-08-22T09:15:58.627Z,29.75
2022-08-22T09:19:27.360Z,29.97
2022-08-22T09:22:16.739Z,30.14
2022-08-22T09:24:52.690Z,30.07
2022-08-22T09:27:44.485Z,30.16
2022-08-22T09:30:29.861Z,30.16
2022-08-22T09:33:15.393Z,30.67
2022-08-22T09:36:05.112Z,30.59
2022-08-22T09:38:58.726Z,30.86
2022-08-22T09:41:56.557Z,30.32
2022-08-22T09:44:33.326Z,30.74
2022-08-22T09:47:24.556Z,30.65
2022-08-22T09:50:13.509Z,31.04
2022-08-22T09:53:14.107Z,31.66
2022-08-22T09:55:56.095Z,31.71
2022-08-22T09:58:53.175Z,31.63
2022-08-22T10:01:42.375Z,31.61
2022-08-22T10:04:48.856Z,31.74
2022-08-22T10:07:53.141Z,31.61
2022-08-22T10:11:00.858Z,31.78
2022-08-22T10:14:00.831Z,32.39
2022-08-22T10:16:43.320Z,32.43
2022-08-22T10:19:36.592Z,32.50
2022-08-22T10:22:19.001Z,32.58
2022-08-22T10:25:24.686Z,33.01
2022-08-22T10:28:31.661Z,32.90
2022-08-22T10:31:25.929Z,33.15
2022-08-22T10:34:17.725Z,33.45
2022-08-22T10:36:59.336Z,33.59
2022-08-22T10:39:43.981Z,33.47
2022-08-22T10:42:42.268Z,33.53
2022-08-22T10:45:37.037Z,33.29
2022-08-22T10:48:09.767Z,33.39
2022-08-22T10:50:45.476Z,33.57
2022-08-22T10:53:51.458Z,33.80
2022-08-22T10:56:34.236Z,34.08
2022-08-22T10:59:20.159Z,33.81
2022-08-22T11:02:24.313Z,33.76
2022-08-22T11:05:19.960Z,33.46
2022-08-22T11:08:06.591Z,33.18
2022-08-22T11:11:12.661Z,33.06
2022-08-22T11:13:53.296Z,33.41
2022-08-22T11:16:55.993Z,33.61
2022-08-22T11:19:42.158Z,33.67
2022-08-22T11:22:47.826Z,33.67
2022-08-22T11:25:35.654Z,33.36
2022-08-22T11:28:06.412Z,33.34
2022-08-22T11:31:07.012Z,33.21
2022-08-22T11:33:58.359Z,32.90
2022-08-22T11:36:31.072Z,32.65
2022-08-22T11:39:18.281Z,32.71
2022-08-22T11:42:00.664Z,32.60
2022-08-22T11:44:55.827Z,32.42
2022-08-22T11:47:44.789Z,32.86
2022-08-22T11:50:33.117Z,32.64
2022-08-22T11:53:19.140Z,32.98
2022-08-22T11:56:05.532Z,33.31
2022-08-22T11:59:15.194Z,33.37
2022-08-22T12:02:04.291Z,33.27
2022-08-22T12:04:38.820Z,33.21
2022-08-22T12:07:16.148Z,33.30
2022-08-22T12:10:00.848Z,33.65
2022-08-22T12:13:08.534Z,34.16
2022-08-22T12:15:39.141Z,34.09
2022-08-22T12:18:22.447Z,34.31
2022-08-22T12:20:59.127Z,34.15
2022-08-22T12:23:53.358Z,34.45
2022-08-22T12:26:33.073Z,34.40
2022-08-22T12:29:55.791Z,34.65
2022-08-22T12:32:34.127Z,34.97
2022-08-22T12:35:14.681Z,34.73
2022-08-22T12:38:26.416Z,34.48
2022-08-22T12:41:27.833Z,33.85
2022-08-22T12:44:21.875Z,33.58
2022-08-22T12:47:37.763Z,33.25
2022-08-22T12:50:31.551Z,33.30
2022-08-22T12:53:18.166Z,34.32
2022-08-22T12:55:56.379Z,35.00
2022-08-22T12:58:54.350Z,34.76
2022-08-22T13:01:34.075Z,35.43
2022-08-22T13:04:08.810Z,35.45
2022-08-22T13:10:03.149Z,36.59
2022-08-22T13:12:39.966Z,37.05
2022-08-22T13:15:22.064Z,37.31
2022-08-22T13:17:52.883Z,37.10
2022-08-22T13:20:37.113Z,36.42
2022-08-22T13:23:47.864Z,35.81
2022-08-22T13:26:32.954Z,36.13
2022-08-22T13:29:26.081Z,36.61
2022-08-22T13:32:02.323Z,36.78
2022-08-22T13:34:58.430Z,37.00
2022-08-22T13:37:54.430Z,37.54
2022-08-22T13:40:31.984Z,36.74
2022-08-22T13:43:15.959Z,36.77
2022-08-22T13:46:03.188Z,36.49
2022-08-22T13:48:51.322Z,35.86
2022-08-22T13:51:28.952Z,35.21
2022-08-22T13:54:12.052Z,35.19
2022-08-22T13:57:18.846Z,34.90
2022-08-22T14:00:07.490Z,34.54
2022-08-22T14:03:05.540Z,34.15
2022-08-22T14:05:41.551Z,33.87
2022-08-22T14:08:25.742Z,33.67
2022-08-22T14:11:02.098Z,33.42
2022-08-22T14:14:08.608Z,33.16
2022-08-22T14:16:49.259Z,32.93
2022-08-22T14:19:53.123Z,32.64
2022-08-22T14:22:34.953Z,32.49
2022-08-22T14:25:10.209Z,32.58
2022-08-22T14:27:51.181Z,32.45
2022-08-22T14:30:46.142Z,32.46
2022-08-22T14:33:36.717Z,32.44
2022-08-22T14:36:17.158Z,32.51
2022-08-22T14:38:56.689Z,32.52
2022-08-22T14:41:52.914Z,32.38
2022-08-22T14:44:36.626Z,32.38
2022-08-22T14:47:54.534Z,32.20
2022-08-22T14:50:11.186Z,32.14
2022-08-22T14:52:45.231Z,31.97
2022-08-22T14:55:27.268Z,32.01
2022-08-22T14:58:07.515Z,31.95
2022-08-22T15:00:48.307Z,31.76
2022-08-22T15:03:27.613Z,31.79
2022-08-22T15:06:00.901Z,31.66
2022-08-22T15:08:35.148Z,31.54
2022-08-22T15:11:22.686Z,31.40
2022-08-22T15:14:16.285Z,31.35
2022-08-22T15:16:59.026Z,31.26
2022-08-22T15:19:41.103Z,31.26
2022-08-22T15:22:27.748Z,31.10
2022-08-22T15:25:28.391Z,31.04
2022-08-22T15:28:20.842Z,31.03
2022-08-22T15:30:59.848Z,31.06
2022-08-22T15:33:45.172Z,30.92
2022-08-22T15:36:23.207Z,30.93
2022-08-22T15:39:30.787Z,30.88
2022-08-22T15:42:01.312Z,30.89
2022-08-22T15:44:40.720Z,30.89
2022-08-22T15:47:35.017Z,30.80
2022-08-22T15:50:36.446Z,30.77
2022-08-22T15:53:08.957Z,30.61
2022-08-22T15:56:23.452Z,30.58
2022-08-22T15:59:21.093Z,30.53
2022-08-22T16:02:10.246Z,30.41
2022-08-22T16:04:51.303Z,30.26
2022-08-22T16:07:42.908Z,30.21
2022-08-22T16:10:37.091Z,30.10
2022-08-22T16:13:30.292Z,30.05
2022-08-22T16:16:56.264Z,29.96
2022-08-22T16:19:29.334Z,29.92
2022-08-22T16:21:59.701Z,29.83
2022-08-22T16:24:29.038Z,29.81
2022-08-22T16:26:59.093Z,29.80
2022-08-22T16:29:41.440Z,29.78
2022-08-22T16:32:22.311Z,29.65
2022-08-22T16:34:52.102Z,29.59
2022-08-22T16:37:57.932Z,29.43
2022-08-22T16:40:28.164Z,29.44
2022-08-22T16:43:20.414Z,29.31
2022-08-22T16:45:50.263Z,29.26
2022-08-22T16:48:37.654Z,29.19
2022-08-22T16:51:21.528Z,29.06
2022-08-22T16:54:13.037Z,28.94
2022-08-22T16:56:51.396Z,28.90
2022-08-22T16:59:33.207Z,28.86
2022-08-22T17:02:23.845Z,28.77
2022-08-22T17:05:48.953Z,28.68
2022-08-22T17:08:49.681Z,28.64
2022-08-22T17:15:14.080Z,28.53
2022-08-22T17:18:20.061Z,28.48
2022-08-22T17:21:25.804Z,28.49
2022-08-22T17:24:35.388Z,28.53
2022-08-22T17:27:35.329Z,28.53
2022-08-22T17:30:07.667Z,28.56
2022-08-22T17:32:59.882Z,28.52
2022-08-22T17:39:55.860Z,28.51
2022-08-22T17:42:44.857Z,28.50
2022-08-22T17:45:34.902Z,28.53
2022-08-22T17:48:36.712Z,28.48
2022-08-22T17:51:26.489Z,28.44
2022-08-22T17:54:29.775Z,28.42
2022-08-22T17:57:09.644Z,28.38
2022-08-22T17:59:57.880Z,28.33
2022-08-22T18:02:34.355Z,28.29
2022-08-22T18:05:28.516Z,28.26
2022-08-22T18:11:20.610Z,28.18
2022-08-22T18:14:00.225Z,28.21
2022-08-22T18:16:54.379Z,28.11
2022-08-22T18:20:06.344Z,28.12
2022-08-22T18:22:41.253Z,28.08
2022-08-22T18:25:18.251Z,28.03
2022-08-22T18:28:01.974Z,27.98
2022-08-22T18:31:13.223Z,27.94
2022-08-22T18:33:52.642Z,27.91
2022-08-22T18:36:39.299Z,27.89
2022-08-22T18:39:25.592Z,27.89
2022-08-22T18:42:39.454Z,27.86
2022-08-22T18:45:16.351Z,27.85
2022-08-22T18:47:56.107Z,27.82
2022-08-22T18:50:34.509Z,27.85
2022-08-22T18:53:25.150Z,27.83
2022-08-22T18:56:08.725Z,27.82
2022-08-22T18:58:55.873Z,27.81
2022-08-22T19:02:09.973Z,27.83
2022-08-22T19:05:18.712Z,27.79
2022-08-22T19:08:35.657Z,27.72
2022-08-22T19:11:38.560Z,27.73
2022-08-22T19:14:46.517Z,27.71
2022-08-22T19:17:55.452Z,27.71
2022-08-22T19:20:56.430Z,27.67
2022-08-22T19:23:43.705Z,27.66
2022-08-22T19:26:34.844Z,27.65
2022-08-22T19:29:10.535Z,27.59
2022-08-22T19:31:46.168Z,27.58
2022-08-22T19:34:26.162Z,27.55
2022-08-22T19:37:32.720Z,27.54
2022-08-22T19:40:09.706Z,27.54
2022-08-22T19:42:44.450Z,27.57
2022-08-22T19:45:24.161Z,27.56
2022-08-22T19:48:13.987Z,27.56
2022-08-22T19:50:44.660Z,27.57
2022-08-22T19:53:36.858Z,27.53
2022-08-22T19:56:29.675Z,27.53
2022-08-22T19:59:27.693Z,27.46
2022-08-22T20:02:37.354Z,27.30
2022-08-22T20:05:19.048Z,27.21
2022-08-22T20:07:54.125Z,27.11
2022-08-22T20:14:25.003Z,26.94
2022-08-22T20:17:35.607Z,26.99
2022-08-22T20:20:17.628Z,26.87
2022-08-22T20:23:13.165Z,26.89
2022-08-22T20:25:53.295Z,26.88
2022-08-22T20:28:46.971Z,26.84
2022-08-22T20:31:25.281Z,26.84
2022-08-22T20:34:16.664Z,26.87
2022-08-22T20:36:52.792Z,26.91
2022-08-22T20:39:58.535Z,26.89
2022-08-22T20:42:31.433Z,26.87
2022-08-22T20:45:12.475Z,26.90
2022-08-22T20:47:49.416Z,26.91
2022-08-22T20:50:28.805Z,26.89
2022-08-22T20:53:14.117Z,26.88
2022-08-22T20:55:55.211Z,26.89
2022-08-22T20:58:39.268Z,26.86
2022-08-22T21:01:20.296Z,26.86
2022-08-22T21:03:53.361Z,26.83
2022-08-22T21:06:35.185Z,26.81
2022-08-22T21:09:39.493Z,26.79
2022-08-22T21:12:11.581Z,26.82
2022-08-22T21:14:50.885Z,26.78
2022-08-22T21:17:41.013Z,26.81
2022-08-22T21:20:21.442Z,26.68
2022-08-22T21:22:52.353Z,26.74
2022-08-22T21:25:21.017Z,26.73
2022-08-22T21:27:52.778Z,26.73
2022-08-22T21:30:28.484Z,26.72
2022-08-22T21:33:01.994Z,26.71
2022-08-22T21:35:33.502Z,26.62
2022-08-22T21:38:06.449Z,26.68
2022-08-22T21:40:38.247Z,26.66
2022-08-22T21:43:14.858Z,26.69
2022-08-22T21:45:47.151Z,26.59
2022-08-22T21:48:33.650Z,26.62
2022-08-22T21:51:41.398Z,26.55
2022-08-22T21:54:25.590Z,26.52
2022-08-22T21:56:57.374Z,26.53
2022-08-22T21:59:59.049Z,26.52
2022-08-22T22:02:36.978Z,26.50
2022-08-22T22:05:13.728Z,26.48
2022-08-22T22:07:44.581Z,26.44
2022-08-22T22:10:17.250Z,26.51
2022-08-22T22:12:50.337Z,26.42
2022-08-22T22:15:26.609Z,26.38
2022-08-22T22:17:56.045Z,26.38
2022-08-22T22:20:28.293Z,26.38
2022-08-22T22:22:57.151Z,26.33
2022-08-22T22:25:40.127Z,26.36
2022-08-22T22:28:22.505Z,26.30
2022-08-22T22:30:53.651Z,26.31
2022-08-22T22:33:25.347Z,26.34
2022-08-22T22:35:57.428Z,26.27
2022-08-22T22:38:26.346Z,26.25
2022-08-22T22:40:55.448Z,26.26
2022-08-22T22:43:24.102Z,26.31
2022-08-22T22:45:53.547Z,26.27
2022-08-22T22:48:24.915Z,26.25
2022-08-22T22:50:58.114Z,26.21
2022-08-22T22:53:33.812Z,26.14
2022-08-22T22:56:12.944Z,26.19
2022-08-22T22:58:42.400Z,26.09
2022-08-22T23:01:20.994Z,26.07
2022-08-22T23:03:54.929Z,26.06
2022-08-22T23:06:30.451Z,26.02
2022-08-22T23:08:59.178Z,26.02
2022-08-22T23:11:30.296Z,26.04
2022-08-22T23:13:59.228Z,26.03
2022-08-22T23:16:36.618Z,26.03
2022-08-22T23:19:13.992Z,25.93
2022-08-22T23:21:44.695Z,25.90
2022-08-22T23:24:15.108Z,25.91
2022-08-22T23:26:45.058Z,25.90
2022-08-22T23:29:13.545Z,25.89
2022-08-22T23:31:48.425Z,25.85
2022-08-22T23:34:25.357Z,25.85
2022-08-22T23:36:57.597Z,25.85
2022-08-22T23:39:28.882Z,25.86
2022-08-22T23:41:58.284Z,25.78
2022-08-22T23:44:30.571Z,25.77
2022-08-22T23:47:00.383Z,25.80
2022-08-22T23:49:29.875Z,25.76
2022-08-22T23:51:58.634Z,25.77
2022-08-22T23:54:28.816Z,25.77
2022-08-22T23:57:01.202Z,25.69
2022-08-22T23:59:33.959Z,25.46
